sensor_id;sensor_type;location;lat;lon;timestamp;P1;durP1;ratioP1;P2;durP2;ratioP2
60436;SDS011;46289;51.992;4.498;2024-02-21T00:00:13;16.52;;;3.30;;
60436;SDS011;46289;51.992;4.498;2024-02-21T00:02:22;11.63;;;3.67;;
60436;SDS011;46289;51.992;4.498;2024-02-21T00:04:27;14.30;;;4.38;;
60436;SDS011;46289;51.992;4.498;2024-02-21T00:06:32;16.02;;;3.50;;
60436;SDS011;46289;51.992;4.498;2024-02-21T00:08:37;10.82;;;4.13;;
60436;SDS011;46289;51.992;4.498;2024-02-21T00:10:43;10.68;;;3.47;;
60436;SDS011;46289;51.992;4.498;2024-02-21T00:12:48;14.27;;;3.53;;
60436;SDS011;46289;51.992;4.498;2024-02-21T00:14:53;10.32;;;3.78;;
60436;SDS011;46289;51.992;4.498;2024-02-21T00:16:58;14.32;;;3.63;;
60436;SDS011;46289;51.992;4.498;2024-02-21T00:19:06;10.77;;;2.85;;
60436;SDS011;46289;51.992;4.498;2024-02-21T00:21:11;13.07;;;2.92;;
60436;SDS011;46289;51.992;4.498;2024-02-21T00:23:20;7.03;;;2.70;;
60436;SDS011;46289;51.992;4.498;2024-02-21T00:25:25;13.52;;;3.42;;
60436;SDS011;46289;51.992;4.498;2024-02-21T00:27:32;13.88;;;3.03;;
60436;SDS011;46289;51.992;4.498;2024-02-21T00:29:37;11.43;;;3.85;;
60436;SDS011;46289;51.992;4.498;2024-02-21T00:31:42;12.43;;;3.53;;
60436;SDS011;46289;51.992;4.498;2024-02-21T00:33:47;18.42;;;3.22;;
60436;SDS011;46289;51.992;4.498;2024-02-21T00:35:58;10.88;;;3.75;;
60436;SDS011;46289;51.992;4.498;2024-02-21T00:38:03;13.05;;;4.43;;
60436;SDS011;46289;51.992;4.498;2024-02-21T00:40:08;8.88;;;3.53;;
60436;SDS011;46289;51.992;4.498;2024-02-21T00:42:11;14.73;;;3.90;;
60436;SDS011;46289;51.992;4.498;2024-02-21T00:44:16;9.20;;;3.97;;
60436;SDS011;46289;51.992;4.498;2024-02-21T00:46:21;12.50;;;3.15;;
60436;SDS011;46289;51.992;4.498;2024-02-21T00:48:26;9.48;;;3.38;;
60436;SDS011;46289;51.992;4.498;2024-02-21T00:50:32;16.50;;;4.50;;
60436;SDS011;46289;51.992;4.498;2024-02-21T00:52:41;6.38;;;2.97;;
60436;SDS011;46289;51.992;4.498;2024-02-21T00:54:47;11.55;;;4.57;;
60436;SDS011;46289;51.992;4.498;2024-02-21T00:56:55;14.65;;;3.40;;
60436;SDS011;46289;51.992;4.498;2024-02-21T00:59:00;13.90;;;3.50;;
60436;SDS011;46289;51.992;4.498;2024-02-21T01:01:05;11.70;;;3.58;;
60436;SDS011;46289;51.992;4.498;2024-02-21T01:03:08;15.50;;;3.33;;
60436;SDS011;46289;51.992;4.498;2024-02-21T01:05:13;7.30;;;2.88;;
60436;SDS011;46289;51.992;4.498;2024-02-21T01:07:15;11.63;;;3.08;;
60436;SDS011;46289;51.992;4.498;2024-02-21T01:09:23;11.68;;;4.20;;
60436;SDS011;46289;51.992;4.498;2024-02-21T01:11:28;7.95;;;3.70;;
60436;SDS011;46289;51.992;4.498;2024-02-21T01:13:33;7.55;;;3.20;;
60436;SDS011;46289;51.992;4.498;2024-02-21T01:15:38;10.07;;;3.25;;
60436;SDS011;46289;51.992;4.498;2024-02-21T01:17:43;13.30;;;3.30;;
60436;SDS011;46289;51.992;4.498;2024-02-21T01:19:51;14.82;;;3.22;;
60436;SDS011;46289;51.992;4.498;2024-02-21T01:21:56;9.25;;;2.50;;
60436;SDS011;46289;51.992;4.498;2024-02-21T01:24:02;12.32;;;3.10;;
60436;SDS011;46289;51.992;4.498;2024-02-21T01:26:10;11.27;;;3.70;;
60436;SDS011;46289;51.992;4.498;2024-02-21T01:28:17;10.13;;;3.42;;
60436;SDS011;46289;51.992;4.498;2024-02-21T01:30:23;8.77;;;2.97;;
60436;SDS011;46289;51.992;4.498;2024-02-21T01:32:29;9.20;;;3.33;;
60436;SDS011;46289;51.992;4.498;2024-02-21T01:34:31;9.68;;;3.92;;
60436;SDS011;46289;51.992;4.498;2024-02-21T01:36:37;11.35;;;3.10;;
60436;SDS011;46289;51.992;4.498;2024-02-21T01:38:43;11.07;;;2.75;;
60436;SDS011;46289;51.992;4.498;2024-02-21T01:40:48;23.63;;;4.15;;
60436;SDS011;46289;51.992;4.498;2024-02-21T01:42:57;10.23;;;2.58;;
60436;SDS011;46289;51.992;4.498;2024-02-21T01:45:03;16.75;;;3.85;;
60436;SDS011;46289;51.992;4.498;2024-02-21T01:47:08;8.68;;;2.72;;
60436;SDS011;46289;51.992;4.498;2024-02-21T01:49:15;8.20;;;3.10;;
60436;SDS011;46289;51.992;4.498;2024-02-21T01:51:20;12.30;;;3.53;;
60436;SDS011;46289;51.992;4.498;2024-02-21T01:53:27;8.85;;;4.50;;
60436;SDS011;46289;51.992;4.498;2024-02-21T01:55:35;12.43;;;3.03;;
60436;SDS011;46289;51.992;4.498;2024-02-21T01:57:43;5.53;;;2.83;;
60436;SDS011;46289;51.992;4.498;2024-02-21T01:59:52;7.88;;;3.33;;
60436;SDS011;46289;51.992;4.498;2024-02-21T02:01:57;10.00;;;3.33;;
60436;SDS011;46289;51.992;4.498;2024-02-21T02:04:04;8.68;;;3.28;;
60436;SDS011;46289;51.992;4.498;2024-02-21T02:06:10;12.55;;;3.33;;
60436;SDS011;46289;51.992;4.498;2024-02-21T02:08:16;14.95;;;3.45;;
60436;SDS011;46289;51.992;4.498;2024-02-21T02:10:24;11.80;;;3.60;;
60436;SDS011;46289;51.992;4.498;2024-02-21T02:12:26;10.82;;;3.92;;
60436;SDS011;46289;51.992;4.498;2024-02-21T02:14:31;7.60;;;3.83;;
60436;SDS011;46289;51.992;4.498;2024-02-21T02:16:41;9.35;;;3.28;;
60436;SDS011;46289;51.992;4.498;2024-02-21T02:18:46;12.75;;;4.22;;
60436;SDS011;46289;51.992;4.498;2024-02-21T02:20:51;9.75;;;3.50;;
60436;SDS011;46289;51.992;4.498;2024-02-21T02:22:59;7.45;;;3.35;;
60436;SDS011;46289;51.992;4.498;2024-02-21T02:25:10;9.48;;;2.95;;
60436;SDS011;46289;51.992;4.498;2024-02-21T02:27:15;7.55;;;3.22;;
60436;SDS011;46289;51.992;4.498;2024-02-21T02:29:17;11.07;;;3.80;;
60436;SDS011;46289;51.992;4.498;2024-02-21T02:31:22;15.40;;;4.38;;
60436;SDS011;46289;51.992;4.498;2024-02-21T02:33:27;14.20;;;3.90;;
60436;SDS011;46289;51.992;4.498;2024-02-21T02:35:33;12.57;;;4.28;;
60436;SDS011;46289;51.992;4.498;2024-02-21T02:37:37;11.88;;;4.07;;
60436;SDS011;46289;51.992;4.498;2024-02-21T02:39:42;12.80;;;3.70;;
60436;SDS011;46289;51.992;4.498;2024-02-21T02:41:50;11.68;;;3.90;;
60436;SDS011;46289;51.992;4.498;2024-02-21T02:43:58;11.88;;;3.50;;
60436;SDS011;46289;51.992;4.498;2024-02-21T02:46:03;6.50;;;3.50;;
60436;SDS011;46289;51.992;4.498;2024-02-21T02:48:08;11.40;;;3.72;;
60436;SDS011;46289;51.992;4.498;2024-02-21T02:50:14;13.38;;;4.55;;
60436;SDS011;46289;51.992;4.498;2024-02-21T02:54:24;13.15;;;4.32;;
60436;SDS011;46289;51.992;4.498;2024-02-21T02:56:29;7.53;;;3.20;;
60436;SDS011;46289;51.992;4.498;2024-02-21T02:58:37;8.65;;;3.65;;
60436;SDS011;46289;51.992;4.498;2024-02-21T03:00:43;14.35;;;4.05;;
60436;SDS011;46289;51.992;4.498;2024-02-21T03:02:46;10.13;;;3.67;;
60436;SDS011;46289;51.992;4.498;2024-02-21T03:04:53;11.43;;;4.15;;
60436;SDS011;46289;51.992;4.498;2024-02-21T03:07:00;8.50;;;3.65;;
60436;SDS011;46289;51.992;4.498;2024-02-21T03:09:05;13.60;;;3.83;;
60436;SDS011;46289;51.992;4.498;2024-02-21T03:11:10;10.70;;;3.63;;
60436;SDS011;46289;51.992;4.498;2024-02-21T03:13:15;15.07;;;4.20;;
60436;SDS011;46289;51.992;4.498;2024-02-21T03:15:21;11.60;;;4.22;;
60436;SDS011;46289;51.992;4.498;2024-02-21T03:17:27;11.20;;;4.32;;
60436;SDS011;46289;51.992;4.498;2024-02-21T03:19:32;10.77;;;4.07;;
60436;SDS011;46289;51.992;4.498;2024-02-21T03:21:38;14.40;;;4.88;;
60436;SDS011;46289;51.992;4.498;2024-02-21T03:23:43;13.52;;;4.68;;
60436;SDS011;46289;51.992;4.498;2024-02-21T03:25:49;9.45;;;3.33;;
60436;SDS011;46289;51.992;4.498;2024-02-21T03:27:54;11.77;;;3.90;;
60436;SDS011;46289;51.992;4.498;2024-02-21T03:29:59;9.85;;;4.00;;
60436;SDS011;46289;51.992;4.498;2024-02-21T03:32:06;10.65;;;4.20;;
60436;SDS011;46289;51.992;4.498;2024-02-21T03:34:12;8.98;;;4.40;;
60436;SDS011;46289;51.992;4.498;2024-02-21T03:36:17;12.05;;;4.60;;
60436;SDS011;46289;51.992;4.498;2024-02-21T03:38:22;9.60;;;4.70;;
60436;SDS011;46289;51.992;4.498;2024-02-21T03:40:27;12.27;;;4.68;;
60436;SDS011;46289;51.992;4.498;2024-02-21T03:42:32;15.27;;;5.32;;
60436;SDS011;46289;51.992;4.498;2024-02-21T03:44:37;14.65;;;4.38;;
60436;SDS011;46289;51.992;4.498;2024-02-21T03:46:40;11.15;;;4.85;;
60436;SDS011;46289;51.992;4.498;2024-02-21T03:48:48;12.25;;;5.13;;
60436;SDS011;46289;51.992;4.498;2024-02-21T03:50:53;12.57;;;5.10;;
60436;SDS011;46289;51.992;4.498;2024-02-21T03:52:58;15.40;;;4.80;;
60436;SDS011;46289;51.992;4.498;2024-02-21T03:55:03;16.20;;;5.28;;
60436;SDS011;46289;51.992;4.498;2024-02-21T03:57:09;12.30;;;4.82;;
60436;SDS011;46289;51.992;4.498;2024-02-21T03:59:14;12.32;;;5.80;;
60436;SDS011;46289;51.992;4.498;2024-02-21T04:01:19;13.38;;;5.28;;
60436;SDS011;46289;51.992;4.498;2024-02-21T04:03:23;11.85;;;4.38;;
60436;SDS011;46289;51.992;4.498;2024-02-21T04:05:30;12.13;;;4.80;;
60436;SDS011;46289;51.992;4.498;2024-02-21T04:07:35;10.82;;;5.05;;
60436;SDS011;46289;51.992;4.498;2024-02-21T04:09:41;10.85;;;5.05;;
60436;SDS011;46289;51.992;4.498;2024-02-21T04:11:46;13.27;;;5.28;;
60436;SDS011;46289;51.992;4.498;2024-02-21T04:13:51;11.45;;;5.95;;
60436;SDS011;46289;51.992;4.498;2024-02-21T04:15:56;13.30;;;5.47;;
60436;SDS011;46289;51.992;4.498;2024-02-21T04:18:02;10.23;;;5.68;;
60436;SDS011;46289;51.992;4.498;2024-02-21T04:20:13;15.93;;;6.07;;
60436;SDS011;46289;51.992;4.498;2024-02-21T04:22:22;12.75;;;5.65;;
60436;SDS011;46289;51.992;4.498;2024-02-21T04:24:27;14.43;;;6.07;;
60436;SDS011;46289;51.992;4.498;2024-02-21T04:26:32;14.80;;;5.85;;
60436;SDS011;46289;51.992;4.498;2024-02-21T04:28:37;12.77;;;5.38;;
60436;SDS011;46289;51.992;4.498;2024-02-21T04:30:40;17.55;;;5.93;;
60436;SDS011;46289;51.992;4.498;2024-02-21T04:32:46;12.50;;;6.25;;
60436;SDS011;46289;51.992;4.498;2024-02-21T04:34:54;16.33;;;6.72;;
60436;SDS011;46289;51.992;4.498;2024-02-21T04:36:59;13.82;;;6.15;;
60436;SDS011;46289;51.992;4.498;2024-02-21T04:39:06;15.23;;;5.80;;
60436;SDS011;46289;51.992;4.498;2024-02-21T04:41:11;12.93;;;6.07;;
60436;SDS011;46289;51.992;4.498;2024-02-21T04:43:16;16.52;;;6.65;;
60436;SDS011;46289;51.992;4.498;2024-02-21T04:45:19;17.10;;;7.70;;
60436;SDS011;46289;51.992;4.498;2024-02-21T04:47:26;15.45;;;6.47;;
60436;SDS011;46289;51.992;4.498;2024-02-21T04:49:31;10.38;;;5.30;;
60436;SDS011;46289;51.992;4.498;2024-02-21T04:51:36;10.90;;;6.15;;
60436;SDS011;46289;51.992;4.498;2024-02-21T04:53:41;14.52;;;5.70;;
60436;SDS011;46289;51.992;4.498;2024-02-21T04:55:49;14.27;;;5.95;;
60436;SDS011;46289;51.992;4.498;2024-02-21T04:57:54;15.32;;;6.72;;
60436;SDS011;46289;51.992;4.498;2024-02-21T04:59:59;16.48;;;7.45;;
60436;SDS011;46289;51.992;4.498;2024-02-21T05:02:01;16.15;;;7.55;;
60436;SDS011;46289;51.992;4.498;2024-02-21T05:04:06;14.13;;;5.97;;
60436;SDS011;46289;51.992;4.498;2024-02-21T05:06:11;12.43;;;6.05;;
60436;SDS011;46289;51.992;4.498;2024-02-21T05:08:16;13.18;;;6.10;;
60436;SDS011;46289;51.992;4.498;2024-02-21T05:10:24;13.23;;;5.85;;
60436;SDS011;46289;51.992;4.498;2024-02-21T05:12:33;15.25;;;7.03;;
60436;SDS011;46289;51.992;4.498;2024-02-21T05:14:38;11.88;;;5.63;;
60436;SDS011;46289;51.992;4.498;2024-02-21T05:16:43;15.75;;;6.93;;
60436;SDS011;46289;51.992;4.498;2024-02-21T05:18:48;12.20;;;6.55;;
60436;SDS011;46289;51.992;4.498;2024-02-21T05:20:53;16.70;;;6.68;;
60436;SDS011;46289;51.992;4.498;2024-02-21T05:22:58;12.48;;;6.30;;
60436;SDS011;46289;51.992;4.498;2024-02-21T05:25:01;14.88;;;7.68;;
60436;SDS011;46289;51.992;4.498;2024-02-21T05:27:06;10.20;;;5.28;;
60436;SDS011;46289;51.992;4.498;2024-02-21T05:29:14;20.33;;;8.13;;
60436;SDS011;46289;51.992;4.498;2024-02-21T05:31:19;12.52;;;7.10;;
60436;SDS011;46289;51.992;4.498;2024-02-21T05:33:24;17.05;;;7.07;;
60436;SDS011;46289;51.992;4.498;2024-02-21T05:35:29;13.27;;;7.18;;
60436;SDS011;46289;51.992;4.498;2024-02-21T05:37:34;15.02;;;7.00;;
60436;SDS011;46289;51.992;4.498;2024-02-21T05:39:40;15.95;;;7.13;;
60436;SDS011;46289;51.992;4.498;2024-02-21T05:41:45;16.60;;;7.32;;
60436;SDS011;46289;51.992;4.498;2024-02-21T05:43:47;14.55;;;7.32;;
60436;SDS011;46289;51.992;4.498;2024-02-21T05:45:55;18.33;;;7.38;;
60436;SDS011;46289;51.992;4.498;2024-02-21T05:48:00;14.25;;;8.07;;
60436;SDS011;46289;51.992;4.498;2024-02-21T05:50:06;14.48;;;7.32;;
60436;SDS011;46289;51.992;4.498;2024-02-21T05:52:11;14.77;;;7.60;;
60436;SDS011;46289;51.992;4.498;2024-02-21T05:54:16;21.27;;;6.90;;
60436;SDS011;46289;51.992;4.498;2024-02-21T05:56:24;14.38;;;7.13;;
60436;SDS011;46289;51.992;4.498;2024-02-21T05:58:30;17.23;;;8.88;;
60436;SDS011;46289;51.992;4.498;2024-02-21T06:00:36;20.63;;;9.85;;
60436;SDS011;46289;51.992;4.498;2024-02-21T06:02:44;17.92;;;7.07;;
60436;SDS011;46289;51.992;4.498;2024-02-21T06:04:49;15.65;;;7.65;;
60436;SDS011;46289;51.992;4.498;2024-02-21T06:06:54;15.60;;;7.00;;
60436;SDS011;46289;51.992;4.498;2024-02-21T06:08:59;16.85;;;8.07;;
60436;SDS011;46289;51.992;4.498;2024-02-21T06:11:04;18.00;;;8.57;;
60436;SDS011;46289;51.992;4.498;2024-02-21T06:13:10;16.50;;;8.50;;
60436;SDS011;46289;51.992;4.498;2024-02-21T06:15:15;18.83;;;7.95;;
60436;SDS011;46289;51.992;4.498;2024-02-21T06:17:23;16.88;;;7.85;;
60436;SDS011;46289;51.992;4.498;2024-02-21T06:19:31;18.63;;;8.43;;
60436;SDS011;46289;51.992;4.498;2024-02-21T06:21:36;15.48;;;7.65;;
60436;SDS011;46289;51.992;4.498;2024-02-21T06:23:42;20.50;;;8.63;;
60436;SDS011;46289;51.992;4.498;2024-02-21T06:25:44;17.60;;;8.82;;
60436;SDS011;46289;51.992;4.498;2024-02-21T06:27:49;19.00;;;9.40;;
60436;SDS011;46289;51.992;4.498;2024-02-21T06:29:54;17.45;;;8.48;;
60436;SDS011;46289;51.992;4.498;2024-02-21T06:31:59;17.27;;;8.77;;
60436;SDS011;46289;51.992;4.498;2024-02-21T06:34:04;16.55;;;8.35;;
60436;SDS011;46289;51.992;4.498;2024-02-21T06:36:12;14.70;;;8.20;;
60436;SDS011;46289;51.992;4.498;2024-02-21T06:38:17;19.02;;;8.27;;
60436;SDS011;46289;51.992;4.498;2024-02-21T06:40:21;14.40;;;7.53;;
60436;SDS011;46289;51.992;4.498;2024-02-21T06:42:29;13.10;;;7.18;;
60436;SDS011;46289;51.992;4.498;2024-02-21T06:44:34;20.73;;;9.45;;
60436;SDS011;46289;51.992;4.498;2024-02-21T06:46:42;18.27;;;8.80;;
60436;SDS011;46289;51.992;4.498;2024-02-21T06:48:47;17.23;;;7.30;;
60436;SDS011;46289;51.992;4.498;2024-02-21T06:50:55;16.08;;;8.35;;
60436;SDS011;46289;51.992;4.498;2024-02-21T06:53:03;17.33;;;7.10;;
60436;SDS011;46289;51.992;4.498;2024-02-21T06:55:08;12.27;;;6.80;;
60436;SDS011;46289;51.992;4.498;2024-02-21T06:57:13;19.33;;;7.90;;
60436;SDS011;46289;51.992;4.498;2024-02-21T06:59:18;18.55;;;8.00;;
60436;SDS011;46289;51.992;4.498;2024-02-21T07:01:23;17.30;;;8.13;;
60436;SDS011;46289;51.992;4.498;2024-02-21T07:03:28;22.15;;;8.48;;
60436;SDS011;46289;51.992;4.498;2024-02-21T07:05:33;18.10;;;8.75;;
60436;SDS011;46289;51.992;4.498;2024-02-21T07:07:39;19.63;;;8.93;;
60436;SDS011;46289;51.992;4.498;2024-02-21T07:09:47;14.50;;;7.90;;
60436;SDS011;46289;51.992;4.498;2024-02-21T07:11:55;20.02;;;6.85;;
60436;SDS011;46289;51.992;4.498;2024-02-21T07:14:00;18.35;;;7.13;;
60436;SDS011;46289;51.992;4.498;2024-02-21T07:16:06;21.42;;;8.45;;
60436;SDS011;46289;51.992;4.498;2024-02-21T07:18:08;15.32;;;7.22;;
60436;SDS011;46289;51.992;4.498;2024-02-21T07:20:13;21.15;;;8.10;;
60436;SDS011;46289;51.992;4.498;2024-02-21T07:22:19;18.27;;;8.05;;
60436;SDS011;46289;51.992;4.498;2024-02-21T07:24:24;18.50;;;7.85;;
60436;SDS011;46289;51.992;4.498;2024-02-21T07:26:32;20.15;;;9.05;;
60436;SDS011;46289;51.992;4.498;2024-02-21T07:28:37;17.10;;;7.72;;
60436;SDS011;46289;51.992;4.498;2024-02-21T07:30:42;17.05;;;8.00;;
60436;SDS011;46289;51.992;4.498;2024-02-21T07:32:48;16.65;;;8.60;;
60436;SDS011;46289;51.992;4.498;2024-02-21T07:34:54;18.58;;;8.07;;
60436;SDS011;46289;51.992;4.498;2024-02-21T07:37:00;20.92;;;8.70;;
60436;SDS011;46289;51.992;4.498;2024-02-21T07:39:05;21.10;;;7.88;;
60436;SDS011;46289;51.992;4.498;2024-02-21T07:41:10;18.10;;;9.77;;
60436;SDS011;46289;51.992;4.498;2024-02-21T07:43:18;19.27;;;8.55;;
60436;SDS011;46289;51.992;4.498;2024-02-21T07:45:24;19.67;;;8.43;;
60436;SDS011;46289;51.992;4.498;2024-02-21T07:47:31;21.10;;;9.52;;
60436;SDS011;46289;51.992;4.498;2024-02-21T07:49:40;18.60;;;9.65;;
60436;SDS011;46289;51.992;4.498;2024-02-21T07:51:46;26.15;;;9.30;;
60436;SDS011;46289;51.992;4.498;2024-02-21T07:53:51;20.30;;;8.38;;
60436;SDS011;46289;51.992;4.498;2024-02-21T07:55:57;21.80;;;10.43;;
60436;SDS011;46289;51.992;4.498;2024-02-21T07:58:02;22.08;;;9.05;;
60436;SDS011;46289;51.992;4.498;2024-02-21T08:00:13;20.27;;;9.88;;
60436;SDS011;46289;51.992;4.498;2024-02-21T08:02:23;22.92;;;9.32;;
60436;SDS011;46289;51.992;4.498;2024-02-21T08:04:28;23.30;;;8.90;;
60436;SDS011;46289;51.992;4.498;2024-02-21T08:06:33;19.83;;;9.23;;
60436;SDS011;46289;51.992;4.498;2024-02-21T08:08:38;23.20;;;9.50;;
60436;SDS011;46289;51.992;4.498;2024-02-21T08:10:46;20.63;;;9.02;;
60436;SDS011;46289;51.992;4.498;2024-02-21T08:12:56;23.08;;;10.43;;
60436;SDS011;46289;51.992;4.498;2024-02-21T08:15:02;23.75;;;9.75;;
60436;SDS011;46289;51.992;4.498;2024-02-21T08:17:09;17.88;;;8.23;;
60436;SDS011;46289;51.992;4.498;2024-02-21T08:19:15;19.73;;;8.85;;
60436;SDS011;46289;51.992;4.498;2024-02-21T08:21:20;22.17;;;10.20;;
60436;SDS011;46289;51.992;4.498;2024-02-21T08:23:27;19.05;;;9.45;;
60436;SDS011;46289;51.992;4.498;2024-02-21T08:25:30;20.42;;;9.50;;
60436;SDS011;46289;51.992;4.498;2024-02-21T08:27:38;21.40;;;9.43;;
60436;SDS011;46289;51.992;4.498;2024-02-21T08:29:45;23.77;;;8.63;;
60436;SDS011;46289;51.992;4.498;2024-02-21T08:31:50;16.58;;;8.85;;
60436;SDS011;46289;51.992;4.498;2024-02-21T08:34:01;21.23;;;9.20;;
60436;SDS011;46289;51.992;4.498;2024-02-21T08:36:07;25.23;;;11.23;;
60436;SDS011;46289;51.992;4.498;2024-02-21T08:38:13;20.67;;;9.25;;
60436;SDS011;46289;51.992;4.498;2024-02-21T08:40:20;19.20;;;10.27;;
60436;SDS011;46289;51.992;4.498;2024-02-21T08:42:24;20.65;;;11.18;;
60436;SDS011;46289;51.992;4.498;2024-02-21T08:44:35;25.83;;;12.40;;
60436;SDS011;46289;51.992;4.498;2024-02-21T08:46:42;22.10;;;11.50;;
60436;SDS011;46289;51.992;4.498;2024-02-21T08:48:49;26.02;;;11.93;;
60436;SDS011;46289;51.992;4.498;2024-02-21T08:50:57;31.40;;;11.32;;
60436;SDS011;46289;51.992;4.498;2024-02-21T08:53:02;27.45;;;13.77;;
60436;SDS011;46289;51.992;4.498;2024-02-21T08:55:07;24.27;;;12.68;;
60436;SDS011;46289;51.992;4.498;2024-02-21T08:57:13;22.92;;;13.10;;
60436;SDS011;46289;51.992;4.498;2024-02-21T08:59:18;27.67;;;12.35;;
60436;SDS011;46289;51.992;4.498;2024-02-21T09:01:23;22.40;;;12.02;;
60436;SDS011;46289;51.992;4.498;2024-02-21T09:03:28;23.48;;;11.05;;
60436;SDS011;46289;51.992;4.498;2024-02-21T09:05:35;24.60;;;9.57;;
60436;SDS011;46289;51.992;4.498;2024-02-21T09:07:42;25.48;;;11.07;;
60436;SDS011;46289;51.992;4.498;2024-02-21T09:09:45;18.63;;;9.32;;
60436;SDS011;46289;51.992;4.498;2024-02-21T09:11:51;22.00;;;9.48;;
60436;SDS011;46289;51.992;4.498;2024-02-21T09:13:56;22.40;;;10.02;;
60436;SDS011;46289;51.992;4.498;2024-02-21T09:16:02;18.05;;;8.82;;
60436;SDS011;46289;51.992;4.498;2024-02-21T09:18:08;19.30;;;9.57;;
60436;SDS011;46289;51.992;4.498;2024-02-21T09:20:15;17.95;;;8.45;;
60436;SDS011;46289;51.992;4.498;2024-02-21T09:22:21;19.60;;;8.98;;
60436;SDS011;46289;51.992;4.498;2024-02-21T09:24:31;16.65;;;7.93;;
60436;SDS011;46289;51.992;4.498;2024-02-21T09:26:36;28.40;;;10.68;;
60436;SDS011;46289;51.992;4.498;2024-02-21T09:28:42;19.77;;;8.95;;
60436;SDS011;46289;51.992;4.498;2024-02-21T09:30:49;13.82;;;7.78;;
60436;SDS011;46289;51.992;4.498;2024-02-21T09:32:54;18.20;;;8.25;;
60436;SDS011;46289;51.992;4.498;2024-02-21T09:35:00;16.50;;;9.25;;
60436;SDS011;46289;51.992;4.498;2024-02-21T09:37:07;21.83;;;9.55;;
60436;SDS011;46289;51.992;4.498;2024-02-21T09:39:10;17.98;;;9.32;;
60436;SDS011;46289;51.992;4.498;2024-02-21T09:41:25;16.73;;;8.57;;
60436;SDS011;46289;51.992;4.498;2024-02-21T09:43:33;16.10;;;8.43;;
60436;SDS011;46289;51.992;4.498;2024-02-21T09:45:41;15.68;;;7.43;;
60436;SDS011;46289;51.992;4.498;2024-02-21T09:47:56;16.25;;;7.80;;
60436;SDS011;46289;51.992;4.498;2024-02-21T09:50:10;17.10;;;8.15;;
60436;SDS011;46289;51.992;4.498;2024-02-21T09:52:17;14.45;;;7.15;;
60436;SDS011;46289;51.992;4.498;2024-02-21T09:54:28;15.98;;;7.72;;
60436;SDS011;46289;51.992;4.498;2024-02-21T09:56:35;19.63;;;8.65;;
60436;SDS011;46289;51.992;4.498;2024-02-21T09:58:41;16.80;;;8.45;;
60436;SDS011;46289;51.992;4.498;2024-02-21T10:00:47;16.08;;;7.60;;
60436;SDS011;46289;51.992;4.498;2024-02-21T10:02:53;14.07;;;7.78;;
60436;SDS011;46289;51.992;4.498;2024-02-21T10:04:58;15.70;;;7.97;;
60436;SDS011;46289;51.992;4.498;2024-02-21T10:07:05;18.75;;;7.78;;
60436;SDS011;46289;51.992;4.498;2024-02-21T10:09:20;25.90;;;8.18;;
60436;SDS011;46289;51.992;4.498;2024-02-21T10:11:30;18.55;;;8.27;;
60436;SDS011;46289;51.992;4.498;2024-02-21T10:13:36;15.98;;;8.40;;
60436;SDS011;46289;51.992;4.498;2024-02-21T10:15:42;13.05;;;6.72;;
60436;SDS011;46289;51.992;4.498;2024-02-21T10:17:58;13.80;;;7.07;;
60436;SDS011;46289;51.992;4.498;2024-02-21T10:20:09;12.52;;;7.25;;
60436;SDS011;46289;51.992;4.498;2024-02-21T10:22:17;14.88;;;7.20;;
60436;SDS011;46289;51.992;4.498;2024-02-21T10:24:26;16.40;;;6.85;;
60436;SDS011;46289;51.992;4.498;2024-02-21T10:26:34;13.20;;;7.22;;
60436;SDS011;46289;51.992;4.498;2024-02-21T10:28:42;16.05;;;6.65;;
60436;SDS011;46289;51.992;4.498;2024-02-21T10:30:50;13.82;;;5.82;;
60436;SDS011;46289;51.992;4.498;2024-02-21T10:33:00;10.10;;;5.97;;
60436;SDS011;46289;51.992;4.498;2024-02-21T10:35:05;11.68;;;6.32;;
60436;SDS011;46289;51.992;4.498;2024-02-21T10:37:11;15.05;;;6.82;;
60436;SDS011;46289;51.992;4.498;2024-02-21T10:39:17;12.25;;;6.65;;
60436;SDS011;46289;51.992;4.498;2024-02-21T10:41:26;16.50;;;5.22;;
60436;SDS011;46289;51.992;4.498;2024-02-21T10:43:33;16.92;;;6.10;;
60436;SDS011;46289;51.992;4.498;2024-02-21T10:45:48;10.82;;;6.18;;
60436;SDS011;46289;51.992;4.498;2024-02-21T10:48:02;10.85;;;6.80;;
60436;SDS011;46289;51.992;4.498;2024-02-21T10:50:15;12.27;;;6.63;;
60436;SDS011;46289;51.992;4.498;2024-02-21T10:52:25;13.63;;;7.35;;
60436;SDS011;46289;51.992;4.498;2024-02-21T10:54:43;12.00;;;6.53;;
60436;SDS011;46289;51.992;4.498;2024-02-21T10:56:54;16.75;;;6.60;;
60436;SDS011;46289;51.992;4.498;2024-02-21T10:59:03;15.65;;;6.00;;
60436;SDS011;46289;51.992;4.498;2024-02-21T11:01:13;14.60;;;6.95;;
60436;SDS011;46289;51.992;4.498;2024-02-21T11:03:21;18.50;;;8.55;;
60436;SDS011;46289;51.992;4.498;2024-02-21T11:05:29;15.50;;;7.50;;
60436;SDS011;46289;51.992;4.498;2024-02-21T11:07:36;16.90;;;6.97;;
60436;SDS011;46289;51.992;4.498;2024-02-21T11:09:49;18.55;;;7.75;;
60436;SDS011;46289;51.992;4.498;2024-02-21T11:11:58;14.00;;;7.78;;
60436;SDS011;46289;51.992;4.498;2024-02-21T11:14:07;14.93;;;7.80;;
60436;SDS011;46289;51.992;4.498;2024-02-21T11:16:23;15.75;;;7.75;;
60436;SDS011;46289;51.992;4.498;2024-02-21T11:18:28;18.30;;;7.85;;
60436;SDS011;46289;51.992;4.498;2024-02-21T11:20:37;14.43;;;7.22;;
60436;SDS011;46289;51.992;4.498;2024-02-21T11:22:43;16.65;;;8.07;;
60436;SDS011;46289;51.992;4.498;2024-02-21T11:24:48;18.98;;;8.75;;
60436;SDS011;46289;51.992;4.498;2024-02-21T11:26:55;17.55;;;7.88;;
60436;SDS011;46289;51.992;4.498;2024-02-21T11:29:02;16.60;;;7.10;;
60436;SDS011;46289;51.992;4.498;2024-02-21T11:31:11;17.17;;;8.43;;
60436;SDS011;46289;51.992;4.498;2024-02-21T11:33:21;13.70;;;7.35;;
60436;SDS011;46289;51.992;4.498;2024-02-21T11:35:30;12.80;;;6.82;;
60436;SDS011;46289;51.992;4.498;2024-02-21T11:37:41;15.45;;;8.45;;
60436;SDS011;46289;51.992;4.498;2024-02-21T11:39:49;14.52;;;7.40;;
60436;SDS011;46289;51.992;4.498;2024-02-21T11:42:03;13.38;;;7.80;;
60436;SDS011;46289;51.992;4.498;2024-02-21T11:44:11;15.52;;;7.90;;
60436;SDS011;46289;51.992;4.498;2024-02-21T11:46:17;16.02;;;7.28;;
60436;SDS011;46289;51.992;4.498;2024-02-21T11:48:27;14.90;;;8.07;;
60436;SDS011;46289;51.992;4.498;2024-02-21T11:50:33;16.35;;;7.80;;
60436;SDS011;46289;51.992;4.498;2024-02-21T11:52:41;10.43;;;6.38;;
60436;SDS011;46289;51.992;4.498;2024-02-21T11:54:50;11.93;;;7.03;;
60436;SDS011;46289;51.992;4.498;2024-02-21T11:57:07;20.25;;;8.82;;
60436;SDS011;46289;51.992;4.498;2024-02-21T11:59:12;15.10;;;7.88;;
60436;SDS011;46289;51.992;4.498;2024-02-21T12:01:18;14.20;;;6.85;;
60436;SDS011;46289;51.992;4.498;2024-02-21T12:03:27;14.90;;;6.82;;
60436;SDS011;46289;51.992;4.498;2024-02-21T12:05:32;12.27;;;6.63;;
60436;SDS011;46289;51.992;4.498;2024-02-21T12:07:38;13.35;;;7.32;;
60436;SDS011;46289;51.992;4.498;2024-02-21T12:09:44;13.68;;;7.30;;
60436;SDS011;46289;51.992;4.498;2024-02-21T12:11:56;13.00;;;7.50;;
60436;SDS011;46289;51.992;4.498;2024-02-21T12:14:04;14.02;;;7.90;;
60436;SDS011;46289;51.992;4.498;2024-02-21T12:16:10;9.40;;;6.88;;
60436;SDS011;46289;51.992;4.498;2024-02-21T12:18:13;14.38;;;7.70;;
60436;SDS011;46289;51.992;4.498;2024-02-21T12:20:22;15.15;;;7.80;;
60436;SDS011;46289;51.992;4.498;2024-02-21T12:22:28;16.13;;;6.88;;
60436;SDS011;46289;51.992;4.498;2024-02-21T12:24:34;15.05;;;7.60;;
60436;SDS011;46289;51.992;4.498;2024-02-21T12:26:42;16.00;;;7.53;;
60436;SDS011;46289;51.992;4.498;2024-02-21T12:28:48;13.80;;;7.25;;
60436;SDS011;46289;51.992;4.498;2024-02-21T12:30:56;14.32;;;6.93;;
60436;SDS011;46289;51.992;4.498;2024-02-21T12:33:01;13.00;;;7.50;;